Sites, California
Current Conditions -  °F | °C
As of 11:56 PM on Wednesday 26 Nov 2014 (Local Time) from KUKI Reporting Station
Clear Clear  
Wind Chill: 47°   Ceiling: Unl
Heat Index: 47°   Visibility: 10mi
Dew Point: 44°   Wind: 0mph
Humidity: 90%   Direction: NA
Pressure: 30.24"   Gusts: NA
Location:  39.3318°N, 122.533°W
Report Text: KUKI 270756Z AUTO 00000KT 10SM CLR 08/07 A3024 RMK AO2 SLP236 T00830067 402000022
Loading
Personal Weather Stations






























Interactive Weather Map New forecast layout! Learn more

10-Day Weather Forecast

Advertisements
Track Severe Weather on mobile